To NAV CANADA Home Page Login to a new session Search on AWWS site Feedback and Comments Disclaimer Vers la page française équivalente Tips FAQ What's new on the site To the Forecasts and Observations / NOTAM section To "File a Flight Plan" website Publications and other links Update of the User's profile FIC Telephone Numbers My Weather Data Folder Route Weather Data Regional Weather Data Local Weather Data To the Forecasts and Observations / NOTAM section
Request Generated 08/28/2015 at 22:11:23 UTC . Weather information available at that time is displayed.

METAR/TAF

MONTREAL/MONTREAL INTL (MIRABEL)/QC    

METAR CYMX 282200Z 27005KT 220V300 45SM FEW035 20/14 A3012 RMK SC1 SC
TR SLP202 DENSITY ALT 600FT=
METAR CYMX 282100Z 26005KT 220V310 45SM FEW035 SCT190 21/13 A3012 RMK
SC1CS3 SC TR SLP202 DENSITY ALT 700FT=
METAR CYMX 282000Z 22009G18KT 200V290 45SM SCT035 21/13 A3013 RMK CU4
SLP205 DENSITY ALT 700FT=

TAF CYMX 281738Z 2818/2918 25010KT P6SM BKN030 TEMPO 2818/2824 SCT030
FM290600 VRB03KT P6SM SKC PROB30 2908/2911 1SM BR
FM291500 25010KT P6SM BKN030 BKN250
RMK NXT FCST BY 290000Z=
Your time UTC time
Weather data provided by Environment Canada and NAV CANADA